Time;durP1;ratioP1;P1;durP2;ratioP2;P2;SDS_P1;SDS_P2;PMS_P1;PMS_P2;Temp;Humidity;BMP_temperature;BMP_pressure;BME280_temperature;BME280_humidity;BME280_pressure;Samples;Min_cycle;Max_cycle;Signal;HPM_P1;HPM_P2
2023/09/07 00:00:48;;;;;;;1.60;1.50;;;20.30;81.90;;;;;;5004933;28;20077;-64
2023/09/07 00:03:15;;;;;;;1.48;1.33;;;20.30;82.60;;;;;;5001099;28;20077;-64
2023/09/07 00:05:41;;;;;;;4.50;1.50;;;20.20;83.30;;;;;;5007874;28;20046;-64
2023/09/07 00:08:07;;;;;;;1.33;1.23;;;20.20;83.80;;;;;;5006602;28;20046;-63
2023/09/07 00:10:36;;;;;;;3.15;1.20;;;20.20;84.20;;;;;;5007684;28;20111;-63
2023/09/07 00:13:03;;;;;;;1.23;1.20;;;20.20;85.10;;;;;;5007968;28;20037;-63
2023/09/07 00:15:29;;;;;;;1.65;1.50;;;20.10;86.40;;;;;;5007166;28;20452;-64
2023/09/07 00:17:56;;;;;;;1.30;1.30;;;20.10;87.90;;;;;;4973948;28;20048;-64
2023/09/07 00:20:23;;;;;;;3.60;1.60;;;20.00;89.00;;;;;;5006592;28;20538;-63
2023/09/07 00:22:49;;;;;;;1.48;1.38;;;20.00;90.20;;;;;;5007774;28;20515;-63
2023/09/07 00:25:15;;;;;;;2.15;1.70;;;19.90;90.50;;;;;;4984655;28;20064;-63
2023/09/07 00:27:41;;;;;;;3.75;1.73;;;19.90;91.00;;;;;;5005136;28;20062;-64
2023/09/07 00:30:09;;;;;;;2.08;1.45;;;19.80;91.40;;;;;;5007108;28;20579;-63
2023/09/07 00:32:38;;;;;;;1.73;1.63;;;19.80;92.30;;;;;;5003122;28;20064;-64
2023/09/07 00:35:05;;;;;;;3.50;1.58;;;19.70;92.50;;;;;;5007433;28;20488;-63
2023/09/07 00:37:31;;;;;;;1.85;1.60;;;19.70;92.80;;;;;;5006618;28;20064;-63
2023/09/07 00:39:57;;;;;;;3.60;1.42;;;19.70;93.10;;;;;;5007467;28;20487;-63
2023/09/07 00:42:23;;;;;;;1.55;1.45;;;19.60;93.80;;;;;;4988631;28;20096;-63
2023/09/07 00:44:48;;;;;;;8.98;1.95;;;19.60;95.00;;;;;;5005655;28;20511;-63
2023/09/07 00:47:16;;;;;;;2.47;1.75;;;19.60;95.40;;;;;;5006331;28;20050;-63
2023/09/07 00:49:42;;;;;;;2.58;1.75;;;19.60;95.70;;;;;;5006985;28;20498;-63
2023/09/07 00:52:09;;;;;;;1.63;1.40;;;19.50;96.20;;;;;;5003629;28;20109;-63
2023/09/07 00:54:38;;;;;;;2.05;1.80;;;19.60;96.80;;;;;;5005798;28;20129;-63
2023/09/07 00:57:05;;;;;;;2.80;2.60;;;19.60;96.80;;;;;;4989863;28;20622;-64
2023/09/07 00:59:32;;;;;;;3.13;1.70;;;19.60;97.10;;;;;;4985136;28;20077;-64
2023/09/07 01:01:58;;;;;;;1.63;1.33;;;19.60;98.10;;;;;;5011226;28;20101;-63
2023/09/07 01:04:24;;;;;;;2.03;1.70;;;19.60;98.30;;;;;;4993845;28;20403;-63
2023/09/07 01:06:59;;;;;;;3.55;1.85;;;19.60;98.30;;;;;;5014366;28;20049;-63
2023/09/07 01:09:28;;;;;;;3.03;1.50;;;19.50;98.30;;;;;;5007416;28;20407;-63
2023/09/07 01:11:54;;;;;;;2.13;1.73;;;19.50;98.20;;;;;;5006294;28;20042;-63
2023/09/07 01:14:19;;;;;;;1.63;1.52;;;19.40;98.20;;;;;;5007218;28;20588;-63
2023/09/07 01:16:45;;;;;;;1.80;1.70;;;19.40;98.80;;;;;;5005570;28;20038;-63
2023/09/07 01:19:11;;;;;;;5.35;1.77;;;19.30;99.50;;;;;;4999113;28;20118;-63
2023/09/07 01:21:38;;;;;;;3.33;1.60;;;19.20;99.90;;;;;;5004614;28;20403;-63
2023/09/07 01:24:12;;;;;;;1.92;1.75;;;19.10;99.90;;;;;;4989431;28;20115;-63
2023/09/07 01:26:38;;;;;;;1.70;1.60;;;19.10;99.90;;;;;;5017427;28;20104;-63
2023/09/07 01:29:08;;;;;;;3.17;1.52;;;19.10;99.90;;;;;;5006488;28;20113;-63
2023/09/07 01:31:37;;;;;;;2.22;2.00;;;19.00;99.90;;;;;;5007316;28;20041;-63
2023/09/07 01:34:04;;;;;;;4.72;2.00;;;19.00;99.90;;;;;;5005199;28;20057;-63
2023/09/07 01:36:30;;;;;;;3.53;1.70;;;18.90;99.90;;;;;;4989453;28;20091;-64
2023/09/07 01:38:56;;;;;;;4.00;1.73;;;18.80;99.90;;;;;;4972868;28;20046;-64
2023/09/07 01:41:22;;;;;;;2.30;1.70;;;18.80;99.90;;;;;;4997615;28;20050;-63
2023/09/07 01:43:48;;;;;;;2.38;1.60;;;18.70;99.90;;;;;;4981016;28;20029;-64
2023/09/07 01:46:14;;;;;;;9.13;2.00;;;18.80;99.90;;;;;;5006234;28;20111;-63
2023/09/07 01:48:42;;;;;;;2.08;1.60;;;18.80;99.90;;;;;;4997080;28;20101;-63
2023/09/07 01:51:08;;;;;;;2.20;1.90;;;18.80;99.90;;;;;;5005991;28;20054;-64
2023/09/07 01:53:33;;;;;;;4.22;1.98;;;18.80;99.90;;;;;;5005505;28;20530;-63
2023/09/07 01:55:59;;;;;;;7.18;2.10;;;18.90;99.90;;;;;;4972345;28;20089;-63
2023/09/07 01:58:25;;;;;;;3.90;1.70;;;18.90;99.90;;;;;;4989628;28;20070;-64
2023/09/07 02:00:56;;;;;;;1.45;1.35;;;18.90;99.90;;;;;;5004828;28;20472;-64
2023/09/07 02:03:22;;;;;;;2.00;1.67;;;18.90;99.90;;;;;;4977560;28;20054;-64
2023/09/07 02:05:48;;;;;;;2.40;1.45;;;18.90;99.90;;;;;;4989704;28;20053;-64
2023/09/07 02:08:13;;;;;;;2.85;1.65;;;18.80;99.90;;;;;;5016641;28;20049;-64
2023/09/07 02:10:39;;;;;;;3.47;1.30;;;18.80;99.90;;;;;;5010232;28;20447;-64
2023/09/07 02:13:05;;;;;;;2.38;1.50;;;18.70;99.90;;;;;;5019365;28;20046;-64
2023/09/07 02:15:31;;;;;;;4.68;1.77;;;18.60;99.90;;;;;;5010212;28;20045;-64
2023/09/07 02:17:57;;;;;;;2.35;1.70;;;18.50;99.90;;;;;;5008701;28;20065;-63
2023/09/07 02:20:22;;;;;;;2.63;1.80;;;18.50;99.90;;;;;;5010187;28;20877;-64
2023/09/07 02:22:50;;;;;;;5.45;1.90;;;18.50;99.90;;;;;;5009526;28;20046;-63
2023/09/07 02:25:16;;;;;;;5.53;2.20;;;18.50;99.90;;;;;;5015822;28;20066;-63
2023/09/07 02:27:41;;;;;;;2.05;1.80;;;18.50;99.90;;;;;;5010334;28;20074;-63
2023/09/07 02:30:07;;;;;;;3.33;2.03;;;18.60;99.90;;;;;;4990818;28;20518;-63
2023/09/07 02:32:33;;;;;;;2.03;1.90;;;18.60;99.90;;;;;;5009697;28;20121;-63
2023/09/07 02:34:59;;;;;;;1.70;1.52;;;18.60;99.90;;;;;;5005852;28;20164;-63
2023/09/07 02:37:25;;;;;;;3.13;1.60;;;18.70;99.90;;;;;;5010205;28;20092;-65
2023/09/07 02:39:50;;;;;;;2.65;1.55;;;18.70;99.90;;;;;;4991014;28;20129;-63
2023/09/07 02:42:16;;;;;;;2.20;1.70;;;18.60;99.90;;;;;;5009799;28;20057;-63
2023/09/07 02:44:42;;;;;;;2.58;1.65;;;18.50;99.90;;;;;;4992143;28;20042;-63
2023/09/07 02:47:07;;;;;;;2.10;1.90;;;18.50;99.90;;;;;;5000540;28;20080;-63
2023/09/07 02:49:33;;;;;;;2.10;1.58;;;18.50;99.90;;;;;;5009750;28;20042;-63
2023/09/07 02:51:59;;;;;;;4.03;2.20;;;18.50;99.90;;;;;;5007789;28;20403;-63
2023/09/07 02:54:24;;;;;;;3.28;1.55;;;18.50;99.90;;;;;;4992438;28;20042;-64
2023/09/07 02:56:50;;;;;;;2.08;1.85;;;18.50;99.90;;;;;;5000554;28;20038;-63
2023/09/07 02:59:16;;;;;;;3.20;2.20;;;18.40;99.90;;;;;;4975245;28;20053;-63
2023/09/07 03:01:41;;;;;;;3.45;1.73;;;18.50;99.90;;;;;;5002577;28;20051;-63
2023/09/07 03:04:07;;;;;;;5.68;1.73;;;18.50;99.90;;;;;;4989760;28;20056;-63
2023/09/07 03:06:33;;;;;;;1.80;1.70;;;18.40;99.90;;;;;;4987069;28;20373;-64
2023/09/07 03:08:59;;;;;;;2.00;1.90;;;18.40;99.90;;;;;;4981650;28;20073;-63
2023/09/07 03:11:25;;;;;;;9.02;1.85;;;18.50;99.90;;;;;;4991905;28;20060;-64
2023/09/07 03:13:52;;;;;;;6.32;2.20;;;18.40;99.90;;;;;;5008281;28;20112;-64
2023/09/07 03:16:18;;;;;;;4.50;1.80;;;18.50;99.90;;;;;;4991583;28;20046;-63
2023/09/07 03:18:43;;;;;;;5.03;2.25;;;18.50;99.90;;;;;;5007786;28;20045;-63
2023/09/07 03:21:10;;;;;;;2.25;2.05;;;18.50;99.90;;;;;;5008116;28;20099;-63
2023/09/07 03:23:36;;;;;;;3.63;2.03;;;18.50;99.90;;;;;;5009388;28;20049;-63
2023/09/07 03:26:01;;;;;;;3.28;2.20;;;18.50;99.90;;;;;;5007447;28;20492;-64
2023/09/07 03:28:28;;;;;;;3.10;1.85;;;18.50;99.90;;;;;;5008503;28;20046;-64
2023/09/07 03:30:55;;;;;;;6.22;2.30;;;18.50;99.90;;;;;;5006597;28;20107;-63
2023/09/07 03:33:24;;;;;;;2.10;1.90;;;18.40;99.90;;;;;;5002738;28;20105;-64
2023/09/07 03:35:51;;;;;;;4.40;2.22;;;18.40;99.90;;;;;;4978921;28;20073;-64
2023/09/07 03:38:17;;;;;;;8.05;2.17;;;18.30;99.90;;;;;;5007189;28;20046;-63
2023/09/07 03:40:43;;;;;;;2.25;2.13;;;18.30;99.90;;;;;;4989711;28;20053;-63
2023/09/07 03:43:09;;;;;;;2.17;1.98;;;18.20;99.90;;;;;;5007246;28;20096;-63
2023/09/07 03:45:35;;;;;;;4.32;2.25;;;18.20;99.90;;;;;;4991075;28;20052;-63
2023/09/07 03:48:00;;;;;;;3.78;2.80;;;18.20;99.90;;;;;;4988526;28;20061;-63
2023/09/07 03:50:26;;;;;;;2.22;2.00;;;18.20;99.90;;;;;;5008525;28;20046;-63
2023/09/07 03:52:52;;;;;;;5.80;2.47;;;18.10;99.90;;;;;;4986350;28;20061;-63
2023/09/07 03:55:17;;;;;;;2.15;2.05;;;18.10;99.90;;;;;;5006844;28;20054;-63
2023/09/07 03:57:43;;;;;;;6.00;2.63;;;18.10;99.90;;;;;;5007979;28;20435;-64
2023/09/07 04:00:09;;;;;;;2.60;2.40;;;18.10;99.90;;;;;;5007652;28;20046;-63
2023/09/07 04:02:35;;;;;;;3.47;2.20;;;18.10;99.90;;;;;;5002723;28;20057;-64
2023/09/07 04:05:03;;;;;;;3.90;2.60;;;18.00;99.90;;;;;;5006997;28;20038;-63
2023/09/07 04:07:29;;;;;;;5.68;2.00;;;18.10;99.90;;;;;;5008302;28;20038;-63
2023/09/07 04:09:54;;;;;;;4.25;2.40;;;18.00;99.90;;;;;;5007108;28;20049;-63
2023/09/07 04:12:20;;;;;;;3.58;2.25;;;18.00;99.90;;;;;;5007492;28;20527;-63
2023/09/07 04:14:46;;;;;;;2.58;2.20;;;18.00;99.90;;;;;;5006890;28;20042;-63
2023/09/07 04:17:12;;;;;;;2.85;2.30;;;17.90;99.90;;;;;;5007643;28;20108;-63
2023/09/07 04:19:38;;;;;;;3.00;2.28;;;17.90;99.90;;;;;;4989533;28;20128;-63
2023/09/07 04:22:04;;;;;;;5.40;2.22;;;18.00;99.90;;;;;;5006509;28;20531;-63
2023/09/07 04:24:29;;;;;;;4.72;2.40;;;17.90;99.90;;;;;;5008226;28;20164;-63
2023/09/07 04:27:00;;;;;;;2.78;2.15;;;17.90;99.90;;;;;;4988889;28;20095;-63
2023/09/07 04:29:27;;;;;;;2.53;2.33;;;17.90;99.90;;;;;;5007403;28;20081;-63
2023/09/07 04:31:52;;;;;;;2.95;2.45;;;17.90;99.90;;;;;;4982145;28;20503;-64
2023/09/07 04:34:18;;;;;;;2.80;2.60;;;17.90;99.90;;;;;;5007348;28;20096;-63
2023/09/07 04:36:44;;;;;;;4.10;2.08;;;17.90;99.90;;;;;;4988880;28;20086;-63
2023/09/07 04:39:11;;;;;;;3.92;2.50;;;17.90;99.90;;;;;;5006981;28;20042;-63
2023/09/07 04:41:36;;;;;;;2.60;2.40;;;17.90;99.90;;;;;;5007545;28;20649;-63
2023/09/07 04:44:02;;;;;;;2.75;2.45;;;18.00;99.90;;;;;;4972436;28;20053;-63
2023/09/07 04:46:28;;;;;;;3.22;2.40;;;18.00;99.90;;;;;;5006933;28;20054;-63
2023/09/07 04:48:53;;;;;;;2.30;2.10;;;18.00;99.90;;;;;;4972918;28;20046;-63
2023/09/07 04:51:20;;;;;;;4.63;2.22;;;17.90;99.90;;;;;;4986951;28;20045;-63
2023/09/07 04:53:46;;;;;;;3.95;2.58;;;18.00;99.90;;;;;;4987091;28;20069;-63
2023/09/07 04:56:13;;;;;;;20.42;11.07;;;18.00;99.90;;;;;;4987637;28;20472;-63
2023/09/07 04:58:39;;;;;;;15.85;9.25;;;17.90;99.90;;;;;;4988008;28;20034;-63
2023/09/07 05:01:11;;;;;;;7.38;5.90;;;18.00;99.90;;;;;;4986338;28;20065;-63
2023/09/07 05:03:37;;;;;;;13.68;5.00;;;17.90;99.90;;;;;;4983158;28;20035;-63
2023/09/07 05:06:04;;;;;;;7.22;3.72;;;18.00;99.90;;;;;;4981770;28;20058;-63
2023/09/07 05:08:30;;;;;;;4.13;3.00;;;17.90;99.90;;;;;;4983283;28;20520;-63
2023/09/07 05:11:00;;;;;;;6.65;3.35;;;17.90;99.90;;;;;;4985390;28;20050;-63
2023/09/07 05:13:26;;;;;;;5.05;3.25;;;17.90;99.90;;;;;;4974518;28;20046;-63
2023/09/07 05:15:53;;;;;;;4.13;2.85;;;17.90;99.90;;;;;;4987595;28;20042;-63
2023/09/07 05:18:19;;;;;;;7.20;3.00;;;17.80;99.90;;;;;;4986375;28;20050;-63
2023/09/07 05:20:45;;;;;;;2.90;2.70;;;17.80;99.90;;;;;;4987890;28;20047;-63
2023/09/07 05:23:17;;;;;;;3.08;2.45;;;17.90;99.90;;;;;;4985434;28;20567;-63
2023/09/07 05:25:47;;;;;;;3.40;2.70;;;17.80;99.90;;;;;;4988132;28;20078;-63
2023/09/07 05:28:14;;;;;;;3.20;2.60;;;17.80;99.90;;;;;;4971451;28;20543;-63
2023/09/07 05:30:40;;;;;;;4.25;2.83;;;17.80;99.90;;;;;;4991563;28;20056;-62
2023/09/07 05:33:06;;;;;;;3.75;2.92;;;17.80;99.90;;;;;;4989309;28;20049;-64
2023/09/07 05:35:32;;;;;;;4.40;2.70;;;17.90;99.90;;;;;;4989074;28;20046;-64
2023/09/07 05:37:58;;;;;;;2.58;2.38;;;17.90;99.90;;;;;;4991413;28;20060;-63
2023/09/07 05:40:24;;;;;;;4.13;3.10;;;17.90;99.90;;;;;;4989149;28;20155;-63
2023/09/07 05:42:50;;;;;;;5.20;2.80;;;17.90;99.90;;;;;;4991670;28;20129;-63
2023/09/07 05:45:19;;;;;;;2.77;2.57;;;18.00;99.90;;;;;;4977908;28;20050;-63
2023/09/07 05:47:44;;;;;;;3.03;2.83;;;18.00;99.90;;;;;;4995499;28;20343;-63
2023/09/07 05:50:10;;;;;;;4.65;3.00;;;18.00;99.90;;;;;;5000942;28;20034;-63
2023/09/07 05:52:36;;;;;;;2.60;2.40;;;18.10;99.90;;;;;;5000866;28;20049;-63
2023/09/07 05:55:02;;;;;;;4.20;2.47;;;18.10;99.90;;;;;;4982153;28;20448;-63
2023/09/07 05:57:28;;;;;;;4.00;3.08;;;18.10;99.90;;;;;;5008538;28;20053;-64
2023/09/07 05:59:53;;;;;;;3.17;2.88;;;18.20;99.90;;;;;;4993069;28;20050;-63
2023/09/07 06:02:19;;;;;;;4.25;2.97;;;18.20;99.90;;;;;;5002499;28;20056;-64
2023/09/07 06:04:45;;;;;;;3.78;2.80;;;18.20;99.90;;;;;;5004387;28;20046;-63
2023/09/07 06:07:11;;;;;;;2.75;2.47;;;18.30;99.90;;;;;;5000458;28;20111;-63
2023/09/07 06:09:36;;;;;;;5.88;2.90;;;18.30;99.90;;;;;;5010145;28;20126;-63
2023/09/07 06:12:03;;;;;;;11.85;2.83;;;18.40;99.90;;;;;;5010053;28;20117;-63
2023/09/07 06:14:29;;;;;;;3.97;2.97;;;18.40;99.90;;;;;;4991344;28;20042;-63
2023/09/07 06:16:54;;;;;;;3.10;2.80;;;18.40;99.90;;;;;;5001202;28;20072;-63
2023/09/07 06:19:20;;;;;;;4.68;2.63;;;18.50;99.90;;;;;;5007425;28;20056;-64
2023/09/07 06:21:46;;;;;;;3.17;2.88;;;18.50;99.90;;;;;;5009235;28;20612;-64
2023/09/07 06:24:11;;;;;;;3.30;3.00;;;18.60;99.90;;;;;;5008927;28;20053;-65
2023/09/07 06:26:37;;;;;;;3.05;2.78;;;18.60;99.90;;;;;;4982630;28;20030;-65
2023/09/07 06:29:03;;;;;;;4.18;2.70;;;18.60;99.90;;;;;;5009603;28;20053;-65
2023/09/07 06:31:29;;;;;;;2.97;2.70;;;18.70;99.90;;;;;;5007947;28;20042;-65
2023/09/07 06:33:54;;;;;;;5.18;2.72;;;18.70;99.90;;;;;;5005483;28;20058;-65
2023/09/07 06:36:20;;;;;;;4.85;2.65;;;18.80;99.90;;;;;;4991253;28;20117;-65
2023/09/07 06:38:46;;;;;;;4.00;2.67;;;18.90;99.90;;;;;;5009659;28;20463;-65
2023/09/07 06:41:12;;;;;;;3.25;2.95;;;19.10;99.90;;;;;;5008330;28;20099;-65
2023/09/07 06:43:38;;;;;;;6.88;3.47;;;19.30;99.90;;;;;;5005805;28;20057;-65
2023/09/07 06:46:07;;;;;;;8.68;3.00;;;19.60;99.90;;;;;;4983505;28;20038;-65
2023/09/07 06:48:34;;;;;;;6.88;3.53;;;19.80;99.90;;;;;;4981394;28;20093;-65
2023/09/07 06:51:04;;;;;;;3.13;2.92;;;20.00;99.90;;;;;;4991566;28;20574;-65
2023/09/07 06:53:30;;;;;;;2.90;2.65;;;20.20;99.90;;;;;;4973203;28;20132;-65
2023/09/07 06:56:03;;;;;;;5.95;3.00;;;20.20;99.90;;;;;;4999450;28;20084;-65
2023/09/07 06:58:29;;;;;;;3.70;2.78;;;20.40;99.90;;;;;;4991385;28;20133;-65
2023/09/07 07:00:58;;;;;;;5.53;3.05;;;20.50;99.90;;;;;;4972600;28;20496;-65
2023/09/07 07:03:29;;;;;;;3.63;2.70;;;20.60;99.90;;;;;;4971187;28;20057;-65
2023/09/07 07:05:56;;;;;;;3.63;3.33;;;20.80;99.90;;;;;;4972598;28;20062;-65
2023/09/07 07:08:22;;;;;;;3.83;3.00;;;20.90;99.90;;;;;;5000909;28;20054;-65
2023/09/07 07:10:47;;;;;;;3.40;2.78;;;21.10;98.50;;;;;;4988502;28;20045;-65
2023/09/07 07:13:13;;;;;;;5.13;3.35;;;21.20;99.80;;;;;;4989931;28;20401;-65
2023/09/07 07:15:39;;;;;;;5.38;3.10;;;21.40;97.60;;;;;;4987558;28;20053;-65
2023/09/07 07:18:08;;;;;;;4.35;3.30;;;21.50;94.60;;;;;;4989935;28;20038;-65
2023/09/07 07:20:37;;;;;;;5.32;3.20;;;21.70;93.60;;;;;;4971257;28;20046;-65
2023/09/07 07:23:03;;;;;;;3.75;3.22;;;21.90;92.30;;;;;;4954214;28;20051;-65
2023/09/07 07:25:33;;;;;;;3.03;2.70;;;22.00;90.90;;;;;;4970586;28;20065;-65
2023/09/07 07:28:05;;;;;;;3.25;2.97;;;22.10;90.00;;;;;;4970418;28;20136;-65
2023/09/07 07:30:31;;;;;;;5.13;3.60;;;22.20;83.90;;;;;;4978314;28;20490;-65
2023/09/07 07:32:57;;;;;;;5.75;3.15;;;22.40;86.90;;;;;;4971108;28;20408;-65
2023/09/07 07:35:23;;;;;;;3.67;2.95;;;22.40;74.10;;;;;;4959521;28;20047;-65
2023/09/07 07:37:52;;;;;;;3.13;2.63;;;22.50;75.60;;;;;;4965092;28;20042;-65
2023/09/07 07:40:18;;;;;;;3.50;3.20;;;22.70;79.20;;;;;;4975151;28;20070;-65
2023/09/07 07:42:47;;;;;;;4.78;2.78;;;22.80;75.40;;;;;;4970766;28;20070;-65
2023/09/07 07:45:13;;;;;;;7.93;3.30;;;22.90;75.10;;;;;;4970520;28;20045;-65
2023/09/07 07:47:41;;;;;;;2.90;2.63;;;23.10;70.00;;;;;;4971350;28;20483;-65
2023/09/07 07:50:07;;;;;;;4.72;3.28;;;23.20;69.10;;;;;;4975713;28;20054;-66
2023/09/07 07:52:33;;;;;;;8.75;2.88;;;23.40;66.10;;;;;;5000289;28;20439;-65
2023/09/07 07:54:59;;;;;;;5.60;2.90;;;23.40;63.40;;;;;;4998990;28;20133;-65
2023/09/07 07:57:25;;;;;;;6.00;2.70;;;23.50;57.50;;;;;;5005010;28;20172;-65
2023/09/07 07:59:51;;;;;;;3.72;3.30;;;23.70;46.40;;;;;;5002514;28;20054;-66
2023/09/07 08:02:16;;;;;;;3.60;3.30;;;23.80;41.70;;;;;;5004269;28;20042;-65
2023/09/07 08:04:42;;;;;;;2.90;2.70;;;23.90;39.50;;;;;;4993324;28;20077;-65
2023/09/07 08:07:08;;;;;;;3.25;2.60;;;23.90;29.50;;;;;;4997880;28;20773;-65
2023/09/07 08:09:34;;;;;;;4.18;2.85;;;24.10;21.70;;;;;;4978734;28;20045;-65
2023/09/07 08:12:05;;;;;;;3.20;2.90;;;24.10;21.00;;;;;;5006078;28;20049;-66
2023/09/07 08:14:31;;;;;;;3.17;2.88;;;24.20;20.10;;;;;;4990711;28;20049;-65
2023/09/07 08:16:57;;;;;;;3.22;2.60;;;24.30;20.20;;;;;;4999335;28;20056;-65
2023/09/07 08:19:24;;;;;;;3.55;3.00;;;24.20;5.80;;;;;;4986499;28;20119;-65
2023/09/07 08:21:50;;;;;;;2.88;2.67;;;24.30;12.30;;;;;;5005063;28;20480;-65
2023/09/07 08:24:16;;;;;;;3.08;2.65;;;24.40;10.30;;;;;;5004604;28;20050;-65
2023/09/07 08:26:43;;;;;;;5.68;2.67;;;24.50;1.20;;;;;;4994768;28;20165;-65
2023/09/07 08:29:10;;;;;;;2.92;2.70;;;24.60;8.00;;;;;;5006589;28;20046;-65
2023/09/07 08:31:38;;;;;;;3.72;2.95;;;24.70;3.60;;;;;;5005620;28;20077;-65
2023/09/07 08:34:06;;;;;;;4.57;2.75;;;24.70;1.00;;;;;;5001745;28;20045;-65
2023/09/07 08:36:33;;;;;;;3.22;2.95;;;24.80;1.00;;;;;;5007521;28;20049;-65
2023/09/07 08:39:09;;;;;;;5.97;3.13;;;24.90;1.00;;;;;;4970757;28;20042;-65
2023/09/07 08:41:45;;;;;;;3.25;2.85;;;25.00;1.00;;;;;;4991505;28;20052;-65
2023/09/07 08:44:11;;;;;;;4.90;2.80;;;25.00;1.00;;;;;;4967484;28;20125;-65
2023/09/07 08:46:37;;;;;;;4.20;2.90;;;25.10;1.00;;;;;;4995737;28;20050;-65
2023/09/07 08:49:04;;;;;;;3.33;2.47;;;25.20;1.00;;;;;;5001582;28;20065;-65
2023/09/07 08:51:31;;;;;;;4.32;2.50;;;25.30;1.00;;;;;;4991954;28;20109;-64
2023/09/07 08:53:58;;;;;;;5.32;2.40;;;25.40;1.00;;;;;;4987307;28;20069;-65
2023/09/07 08:56:24;;;;;;;3.50;2.40;;;25.40;1.00;;;;;;4985122;28;20124;-64
2023/09/07 08:58:51;;;;;;;4.68;2.97;;;25.40;1.00;;;;;;5005987;28;20068;-65
2023/09/07 09:01:17;;;;;;;4.13;2.63;;;25.30;1.00;;;;;;4987977;28;20053;-64
2023/09/07 09:03:43;;;;;;;7.00;3.38;;;25.30;1.00;;;;;;5000203;28;20031;-64
2023/09/07 09:06:10;;;;;;;2.88;2.58;;;25.30;1.00;;;;;;4996181;28;20113;-65
2023/09/07 09:08:48;;;;;;;3.53;3.22;;;25.40;1.00;;;;;;4978007;28;20048;-65
2023/09/07 09:11:15;;;;;;;4.38;2.55;;;25.30;1.00;;;;;;4994025;28;20053;-65
2023/09/07 09:13:41;;;;;;;6.20;3.17;;;25.30;1.00;;;;;;4996864;28;20107;-65
2023/09/07 09:16:07;;;;;;;3.53;2.38;;;25.40;1.00;;;;;;4990968;28;20042;-65
2023/09/07 09:18:33;;;;;;;3.95;2.15;;;25.50;1.00;;;;;;4970917;28;20141;-65
2023/09/07 09:20:59;;;;;;;6.13;2.90;;;25.60;1.00;;;;;;4994900;28;20052;-64
2023/09/07 09:23:36;;;;;;;2.22;2.03;;;25.70;1.00;;;;;;4982291;28;20205;-65
2023/09/07 09:26:05;;;;;;;2.38;2.28;;;25.80;1.00;;;;;;4999815;28;20057;-65
2023/09/07 09:28:32;;;;;;;3.08;2.75;;;25.80;1.00;;;;;;5006744;28;20046;-65
2023/09/07 09:31:02;;;;;;;2.40;2.20;;;25.90;1.00;;;;;;4997574;28;20388;-65
2023/09/07 09:33:31;;;;;;;5.03;2.70;;;26.00;1.00;;;;;;4965621;28;20034;-66
2023/09/07 09:35:58;;;;;;;4.20;2.53;;;26.00;1.00;;;;;;4985145;28;20049;-65
2023/09/07 09:38:25;;;;;;;2.63;2.20;;;26.00;1.00;;;;;;5004236;28;20041;-65
2023/09/07 09:40:52;;;;;;;6.38;2.97;;;26.00;1.00;;;;;;5001093;28;20567;-65
2023/09/07 09:43:21;;;;;;;3.20;2.03;;;26.10;1.00;;;;;;5006167;28;20116;-65
2023/09/07 09:45:50;;;;;;;6.00;2.38;;;26.20;1.00;;;;;;5000784;28;20437;-65
2023/09/07 09:48:18;;;;;;;6.13;2.33;;;26.30;1.00;;;;;;4971672;28;20562;-65
2023/09/07 09:50:45;;;;;;;2.20;2.00;;;26.30;1.00;;;;;;4996980;28;20042;-65
2023/09/07 09:53:17;;;;;;;3.05;1.95;;;26.40;1.00;;;;;;5007012;28;20136;-65
2023/09/07 09:55:43;;;;;;;5.22;2.33;;;26.40;1.00;;;;;;4969687;28;20514;-65
2023/09/07 09:58:08;;;;;;;2.58;2.20;;;26.50;1.00;;;;;;4989417;28;20100;-65
2023/09/07 10:00:37;;;;;;;3.25;2.10;;;26.50;1.00;;;;;;5005514;28;20547;-65
2023/09/07 10:03:13;;;;;;;4.15;2.38;;;26.50;1.00;;;;;;5006394;28;20133;-65
2023/09/07 10:05:38;;;;;;;2.22;2.00;;;26.50;1.00;;;;;;4985511;28;20046;-65
2023/09/07 10:08:16;;;;;;;6.25;2.20;;;26.60;1.00;;;;;;5004124;28;20045;-66
2023/09/07 10:10:48;;;;;;;2.67;2.15;;;26.60;1.00;;;;;;5006591;28;20050;-65
2023/09/07 10:13:15;;;;;;;2.08;1.90;;;26.60;1.00;;;;;;5006043;28;20056;-65
2023/09/07 10:15:41;;;;;;;1.90;1.80;;;26.80;1.00;;;;;;5010201;28;20369;-65
2023/09/07 10:18:16;;;;;;;6.93;1.83;;;26.80;1.00;;;;;;4973904;28;20052;-65
2023/09/07 10:20:55;;;;;;;2.83;1.92;;;26.90;1.00;;;;;;5008765;28;20125;-65
2023/09/07 10:23:22;;;;;;;;;;;26.90;1.00;;;;;;4991936;28;20125;-65
2023/09/07 10:25:49;;;;;;;5.00;1.98;;;27.00;1.00;;;;;;5007583;28;19921;-66
2023/09/07 10:28:24;;;;;;;2.70;2.15;;;27.00;1.00;;;;;;4988884;28;20377;-65
2023/09/07 10:31:05;;;;;;;2.33;2.13;;;27.10;1.00;;;;;;4990098;28;20054;-65
2023/09/07 10:33:35;;;;;;;6.53;2.20;;;27.10;1.00;;;;;;4975344;28;20132;-65
2023/09/07 10:36:03;;;;;;;5.35;2.25;;;27.10;1.00;;;;;;4999554;28;20069;-65
2023/09/07 10:38:30;;;;;;;2.83;2.30;;;27.30;1.00;;;;;;4998293;28;20046;-65
2023/09/07 10:41:01;;;;;;;4.65;2.03;;;27.30;1.00;;;;;;5008060;28;20125;-65
2023/09/07 10:43:28;;;;;;;1.85;1.75;;;27.40;1.00;;;;;;5007688;28;20121;-65
2023/09/07 10:45:56;;;;;;;2.45;2.13;;;27.40;1.00;;;;;;4997566;28;20029;-65
2023/09/07 10:48:22;;;;;;;7.22;1.98;;;27.50;1.00;;;;;;5006892;28;20053;-65
2023/09/07 10:50:48;;;;;;;2.47;2.10;;;27.50;1.00;;;;;;4991276;28;20443;-65
2023/09/07 10:53:23;;;;;;;2.45;2.08;;;27.60;1.00;;;;;;5007264;28;20041;-65
2023/09/07 10:55:49;;;;;;;3.00;2.20;;;27.60;1.00;;;;;;4995027;28;20196;-65
2023/09/07 10:58:27;;;;;;;2.28;2.17;;;27.70;1.00;;;;;;4994888;28;20548;-66
2023/09/07 11:00:54;;;;;;;2.65;2.28;;;27.70;1.00;;;;;;4993265;28;20038;-65
2023/09/07 11:03:20;;;;;;;4.85;2.10;;;27.80;1.00;;;;;;4994056;28;20566;-65
2023/09/07 11:05:47;;;;;;;2.13;1.90;;;27.80;1.00;;;;;;5006189;28;20045;-65
2023/09/07 11:08:12;;;;;;;3.75;2.00;;;27.90;1.00;;;;;;4993311;28;20051;-65
2023/09/07 11:10:38;;;;;;;4.50;2.13;;;28.00;1.00;;;;;;4996159;28;20030;-66
2023/09/07 11:13:05;;;;;;;3.13;2.33;;;28.00;1.00;;;;;;4970179;28;20185;-65
2023/09/07 11:15:32;;;;;;;2.50;2.28;;;28.00;1.00;;;;;;4996560;28;20046;-66
2023/09/07 11:17:58;;;;;;;5.72;2.17;;;28.00;1.00;;;;;;4994585;28;20042;-66
2023/09/07 11:20:24;;;;;;;5.75;2.42;;;27.90;1.00;;;;;;4984012;28;20101;-65
2023/09/07 11:22:50;;;;;;;4.55;2.20;;;27.90;1.00;;;;;;4996189;28;20060;-66
2023/09/07 11:25:16;;;;;;;3.92;1.65;;;27.80;1.00;;;;;;4992052;28;20046;-65
2023/09/07 11:27:42;;;;;;;6.78;2.30;;;27.80;1.00;;;;;;5015302;28;20055;-65
2023/09/07 11:30:10;;;;;;;2.80;2.08;;;27.80;1.00;;;;;;4979287;28;20350;-65
2023/09/07 11:32:38;;;;;;;2.80;2.20;;;27.90;1.00;;;;;;4990696;28;20046;-65
2023/09/07 11:35:07;;;;;;;2.20;1.90;;;27.90;1.00;;;;;;5003948;28;20099;-65
2023/09/07 11:37:34;;;;;;;2.33;2.08;;;27.90;1.00;;;;;;4990650;28;20058;-65
2023/09/07 11:40:01;;;;;;;2.38;2.00;;;28.00;1.00;;;;;;5003940;28;20057;-65
2023/09/07 11:42:26;;;;;;;4.22;2.20;;;28.00;1.00;;;;;;5001101;28;20048;-65
2023/09/07 11:44:52;;;;;;;3.25;2.13;;;28.00;1.00;;;;;;5003215;28;20047;-65
2023/09/07 11:47:18;;;;;;;2.00;1.90;;;28.00;1.00;;;;;;4992187;28;20042;-65
2023/09/07 11:49:43;;;;;;;1.90;1.80;;;28.00;1.00;;;;;;4994579;28;20064;-65
2023/09/07 11:52:09;;;;;;;6.45;3.72;;;28.10;1.00;;;;;;5002245;28;20415;-65
2023/09/07 11:54:35;;;;;;;2.25;1.90;;;28.10;1.00;;;;;;5005892;28;20123;-65
2023/09/07 11:57:00;;;;;;;3.55;2.00;;;28.20;1.00;;;;;;4994870;28;20097;-65
2023/09/07 11:59:28;;;;;;;4.18;1.73;;;28.20;1.00;;;;;;4999466;28;20049;-65
2023/09/07 12:01:53;;;;;;;2.22;1.70;;;28.20;1.00;;;;;;5003869;28;20056;-65
2023/09/07 12:04:19;;;;;;;5.25;2.20;;;28.20;1.00;;;;;;4999415;28;20053;-65
2023/09/07 12:06:45;;;;;;;2.15;2.00;;;28.20;1.00;;;;;;4995407;28;20100;-65
2023/09/07 12:09:11;;;;;;;2.13;1.98;;;28.20;1.00;;;;;;4988270;28;20057;-66
2023/09/07 12:11:36;;;;;;;2.35;2.13;;;28.30;1.00;;;;;;5006266;28;20550;-65
2023/09/07 12:14:03;;;;;;;3.90;1.75;;;28.30;1.00;;;;;;4994704;28;20050;-65
2023/09/07 12:16:29;;;;;;;3.72;1.90;;;28.30;1.00;;;;;;5003529;28;20523;-65
2023/09/07 12:18:55;;;;;;;2.65;1.85;;;28.30;1.00;;;;;;5006016;28;20054;-65
2023/09/07 12:21:21;;;;;;;3.90;2.08;;;28.30;1.00;;;;;;5007011;28;20117;-65
2023/09/07 12:23:47;;;;;;;2.22;2.03;;;28.40;1.00;;;;;;4996865;28;20042;-65
2023/09/07 12:26:16;;;;;;;2.40;2.20;;;28.40;1.00;;;;;;4977348;28;20050;-65
2023/09/07 12:28:42;;;;;;;2.83;1.67;;;28.50;1.00;;;;;;4997476;28;20054;-65
2023/09/07 12:31:11;;;;;;;1.98;1.88;;;28.50;1.00;;;;;;4999877;28;20092;-65
2023/09/07 12:33:37;;;;;;;6.00;2.45;;;28.60;1.00;;;;;;4992970;28;20046;-63
2023/09/07 12:36:05;;;;;;;2.60;2.08;;;28.60;1.00;;;;;;4983299;28;20061;-63
2023/09/07 12:38:30;;;;;;;2.00;1.90;;;28.50;1.00;;;;;;4989296;28;20072;-63
2023/09/07 12:40:56;;;;;;;2.00;1.83;;;28.60;1.00;;;;;;4992633;28;20480;-63
2023/09/07 12:43:24;;;;;;;5.00;2.08;;;28.60;1.00;;;;;;4991767;28;20406;-63
2023/09/07 12:45:50;;;;;;;10.77;1.80;;;28.60;1.00;;;;;;4986708;28;20089;-65
2023/09/07 12:48:16;;;;;;;4.22;2.13;;;28.60;1.00;;;;;;4996165;28;20097;-65